Concepcion del Uruguay, Argentina
Current Conditions -  °F | °C
As of 8:00 AM on Monday 20 Oct 2014 (Local Time) from SUSO Reporting Station
Clear Clear  
Wind Chill: 16°   Ceiling: Unl
Heat Index: 16°   Visibility: 6mi
Dew Point: 12°   Wind: 5mph
Humidity: 77%   Direction: 130°SE
Pressure: 30.15"   Gusts: NA
Location:  32.58°S, 58.58°W
Report Text: SUSO 201100Z 13004KT CAVOK 16/12 Q1021
Loading
Personal Weather Stations






























Interactive Weather Map
Tropical Storm Tracking
New forecast layout! Learn more

10-Day Weather Forecast

Advertisements
Track Severe Weather on mobile